createdAt,value
2022-12-27T00:03:33.056Z,4.35
2022-12-27T00:08:36.677Z,3.90
2022-12-27T00:13:40.677Z,4.60
2022-12-27T00:18:45.735Z,4.20
2022-12-27T00:23:51.270Z,4.68
2022-12-27T00:28:55.300Z,3.97
2022-12-27T00:34:02.354Z,3.90
2022-12-27T00:39:06.129Z,4.82
2022-12-27T00:44:09.839Z,4.20
2022-12-27T00:49:14.801Z,4.82
2022-12-27T00:54:18.374Z,4.82
2022-12-27T00:59:22.356Z,5.07
2022-12-27T01:04:27.267Z,4.78
2022-12-27T01:09:30.819Z,4.30
2022-12-27T01:14:34.445Z,6.00
2022-12-27T01:19:39.821Z,5.07
2022-12-27T01:24:43.422Z,5.15
2022-12-27T01:29:47.056Z,4.05
2022-12-27T01:34:52.948Z,5.18
2022-12-27T01:39:56.501Z,5.55
2022-12-27T01:45:00.118Z,5.20
2022-12-27T01:50:15.852Z,4.75
2022-12-27T01:55:24.523Z,5.07
2022-12-27T02:00:28.118Z,5.25
2022-12-27T02:05:33.894Z,5.25
2022-12-27T02:10:38.661Z,4.95
2022-12-27T02:15:42.251Z,5.43
2022-12-27T02:21:19.440Z,4.68
2022-12-27T02:26:46.810Z,5.38
2022-12-27T02:32:00.256Z,5.68
2022-12-27T02:37:08.858Z,5.85
2022-12-27T02:42:31.999Z,5.40
2022-12-27T02:47:55.204Z,5.03
2022-12-27T02:53:08.194Z,4.90
2022-12-27T02:58:26.298Z,4.40
2022-12-27T03:03:48.311Z,4.15
2022-12-27T03:08:57.456Z,4.30
2022-12-27T03:14:30.110Z,4.35
2022-12-27T03:19:59.259Z,4.50
2022-12-27T03:25:21.568Z,3.90
2022-12-27T03:30:41.610Z,4.90
2022-12-27T03:36:08.368Z,3.35
2022-12-27T03:41:35.748Z,6.03
2022-12-27T03:46:43.526Z,5.57
2022-12-27T03:51:53.627Z,6.18
2022-12-27T03:56:59.663Z,3.45
2022-12-27T04:02:03.707Z,5.18
2022-12-27T04:07:08.897Z,5.03
2022-12-27T04:12:30.477Z,6.35
2022-12-27T04:17:51.403Z,4.57
2022-12-27T04:23:14.079Z,5.45
2022-12-27T04:28:35.197Z,5.60
2022-12-27T04:39:01.037Z,3.25
2022-12-27T04:44:22.108Z,4.60
2022-12-27T04:55:00.583Z,4.72
2022-12-27T05:00:21.951Z,5.68
2022-12-27T05:05:26.302Z,4.20
2022-12-27T05:10:48.654Z,5.72
2022-12-27T05:15:52.423Z,3.72
2022-12-27T05:20:56.234Z,4.70
2022-12-27T05:26:01.113Z,5.00
2022-12-27T05:31:06.593Z,4.35
2022-12-27T05:36:11.235Z,4.50
2022-12-27T05:41:16.270Z,4.28
2022-12-27T05:46:21.907Z,4.80
2022-12-27T05:51:25.588Z,5.35
2022-12-27T05:56:30.646Z,4.20
2022-12-27T06:01:34.320Z,4.50
2022-12-27T06:06:38.028Z,5.75
2022-12-27T06:11:42.974Z,4.45
2022-12-27T06:16:46.859Z,4.72
2022-12-27T06:21:50.569Z,4.45
2022-12-27T06:26:55.442Z,4.30
2022-12-27T06:31:59.075Z,3.65
2022-12-27T06:37:02.667Z,4.10
2022-12-27T06:42:07.687Z,3.63
2022-12-27T06:47:11.214Z,4.10
2022-12-27T06:52:14.756Z,4.18
2022-12-27T06:57:19.746Z,4.80
2022-12-27T07:02:23.578Z,4.07
2022-12-27T07:07:27.279Z,4.32
2022-12-27T07:12:36.604Z,4.10
2022-12-27T07:17:40.981Z,4.50
2022-12-27T07:22:44.736Z,3.75
2022-12-27T07:27:49.699Z,3.65
2022-12-27T07:32:53.292Z,3.83
2022-12-27T07:37:56.790Z,4.07
2022-12-27T07:43:01.716Z,5.13
2022-12-27T07:48:05.840Z,4.85
2022-12-27T07:53:09.749Z,4.97
2022-12-27T07:58:14.879Z,6.35
2022-12-27T08:03:19.430Z,8.10
2022-12-27T08:08:26.273Z,5.70
2022-12-27T08:13:31.308Z,6.22
2022-12-27T08:18:35.216Z,6.50
2022-12-27T08:23:39.066Z,6.50
2022-12-27T08:28:44.390Z,6.78
2022-12-27T08:33:56.528Z,6.22
2022-12-27T08:39:02.071Z,10.88
2022-12-27T08:44:07.814Z,6.95
2022-12-27T08:49:11.666Z,6.65
2022-12-27T08:54:15.377Z,6.93
2022-12-27T08:59:20.657Z,6.57
2022-12-27T09:04:24.547Z,5.78
2022-12-27T09:09:28.248Z,5.75
2022-12-27T09:14:33.381Z,7.00
2022-12-27T09:19:37.445Z,7.35
2022-12-27T09:24:41.115Z,6.20
2022-12-27T09:29:48.376Z,5.95
2022-12-27T09:34:52.334Z,5.60
2022-12-27T09:39:57.017Z,5.68
2022-12-27T09:45:10.140Z,5.47
2022-12-27T09:50:17.373Z,5.50
2022-12-27T09:55:25.060Z,5.35
2022-12-27T10:00:35.188Z,5.82
2022-12-27T10:05:40.913Z,4.28
2022-12-27T10:10:51.258Z,5.50
2022-12-27T10:16:08.603Z,6.20
2022-12-27T10:21:20.647Z,7.10
2022-12-27T10:26:24.665Z,9.25
2022-12-27T10:31:32.220Z,9.57
2022-12-27T10:36:36.167Z,8.25
2022-12-27T10:41:51.509Z,7.90
2022-12-27T10:46:57.825Z,7.85
2022-12-27T10:52:10.756Z,7.90
2022-12-27T10:57:25.739Z,7.88
2022-12-27T11:02:31.218Z,7.82
2022-12-27T11:07:36.010Z,7.82
2022-12-27T11:12:39.991Z,7.53
2022-12-27T11:17:48.029Z,7.45
2022-12-27T11:22:55.205Z,7.13
2022-12-27T11:28:05.967Z,6.13
2022-12-27T11:33:25.189Z,5.90
2022-12-27T11:38:31.725Z,5.65
2022-12-27T11:43:42.292Z,5.05
2022-12-27T11:48:50.247Z,4.25
2022-12-27T11:54:18.181Z,3.80
2022-12-27T11:59:38.963Z,4.43
2022-12-27T12:05:31.254Z,3.92
2022-12-27T12:10:50.871Z,3.65
2022-12-27T12:16:09.303Z,3.90
2022-12-27T12:21:27.478Z,4.03
2022-12-27T12:26:39.358Z,4.63
2022-12-27T12:32:26.440Z,3.13
2022-12-27T12:37:47.659Z,3.15
2022-12-27T12:48:25.909Z,3.03
2022-12-27T12:53:44.716Z,3.38
2022-12-27T12:59:04.232Z,3.58
2022-12-27T13:04:21.050Z,3.60
2022-12-27T13:09:36.635Z,3.50
2022-12-27T13:15:06.835Z,3.25
2022-12-27T13:20:35.623Z,3.85
2022-12-27T13:25:46.360Z,3.47
2022-12-27T13:31:04.213Z,3.78
2022-12-27T13:36:20.043Z,4.47
2022-12-27T13:41:45.563Z,4.43
2022-12-27T13:47:01.499Z,4.50
2022-12-27T13:52:16.983Z,4.03
2022-12-27T13:57:37.717Z,4.70
2022-12-27T14:03:28.050Z,3.65
2022-12-27T14:08:52.574Z,2.58
2022-12-27T14:13:59.647Z,3.80
2022-12-27T14:19:20.718Z,3.50
2022-12-27T14:24:50.336Z,3.42
2022-12-27T14:30:23.166Z,3.35
2022-12-27T14:36:12.315Z,3.35
2022-12-27T14:42:03.340Z,3.03
2022-12-27T14:47:47.537Z,3.63
2022-12-27T14:53:27.537Z,3.90
2022-12-27T14:58:51.129Z,3.38
2022-12-27T15:04:03.431Z,3.33
2022-12-27T15:09:15.030Z,3.65
2022-12-27T15:14:48.878Z,3.58
2022-12-27T15:20:17.887Z,3.28
2022-12-27T15:25:32.638Z,4.03
2022-12-27T15:30:47.761Z,2.42
2022-12-27T15:35:59.546Z,3.30
2022-12-27T15:41:22.322Z,3.60
2022-12-27T15:46:47.829Z,2.58
2022-12-27T15:52:02.758Z,3.45
2022-12-27T15:57:33.486Z,3.53
2022-12-27T16:02:51.336Z,2.97
2022-12-27T16:08:25.611Z,3.60
2022-12-27T16:13:41.866Z,3.65
2022-12-27T16:19:19.574Z,3.80
2022-12-27T16:24:28.341Z,3.65
2022-12-27T16:29:36.309Z,4.22
2022-12-27T16:34:41.461Z,3.60
2022-12-27T16:40:02.810Z,3.80
2022-12-27T16:45:33.248Z,3.47
2022-12-27T16:50:48.503Z,7.63
2022-12-27T16:56:13.545Z,3.50
2022-12-27T17:01:47.698Z,4.35
2022-12-27T17:06:57.767Z,3.63
2022-12-27T17:12:19.576Z,4.28
2022-12-27T17:17:24.702Z,3.80
2022-12-27T17:22:34.480Z,3.72
2022-12-27T17:27:55.232Z,4.30
2022-12-27T17:33:21.309Z,3.75
2022-12-27T17:38:37.079Z,3.53
2022-12-27T17:44:09.780Z,3.83
2022-12-27T17:49:13.709Z,3.80
2022-12-27T17:54:42.069Z,3.50
2022-12-27T17:59:51.172Z,2.92
2022-12-27T18:04:57.116Z,2.60
2022-12-27T18:10:03.838Z,3.60
2022-12-27T18:15:15.968Z,3.88
2022-12-27T18:20:29.440Z,4.07
2022-12-27T18:25:36.621Z,3.67
2022-12-27T18:30:45.057Z,3.33
2022-12-27T18:35:51.945Z,3.30
2022-12-27T18:41:02.959Z,3.17
2022-12-27T18:46:08.238Z,3.17
2022-12-27T18:51:12.146Z,3.55
2022-12-27T18:56:29.321Z,3.30
2022-12-27T19:01:41.256Z,3.97
2022-12-27T19:06:54.602Z,3.33
2022-12-27T19:12:05.613Z,3.35
2022-12-27T19:17:17.845Z,3.38
2022-12-27T19:22:34.380Z,2.80
2022-12-27T19:27:38.151Z,3.13
2022-12-27T19:32:43.429Z,3.13
2022-12-27T19:37:47.450Z,3.85
2022-12-27T19:42:51.492Z,3.25
2022-12-27T19:47:56.501Z,3.22
2022-12-27T19:53:00.668Z,3.22
2022-12-27T19:58:05.034Z,3.60
2022-12-27T20:03:11.020Z,4.03
2022-12-27T20:08:24.815Z,3.92
2022-12-27T20:13:30.509Z,3.28
2022-12-27T20:18:36.900Z,3.88
2022-12-27T20:23:40.871Z,4.25
2022-12-27T20:28:44.716Z,3.60
2022-12-27T20:33:53.785Z,4.05
2022-12-27T20:38:58.764Z,2.97
2022-12-27T20:44:02.513Z,3.33
2022-12-27T20:49:08.151Z,3.25
2022-12-27T20:54:14.030Z,3.63
2022-12-27T20:59:17.815Z,3.45
2022-12-27T21:04:22.723Z,3.80
2022-12-27T21:09:26.498Z,3.05
2022-12-27T21:14:30.943Z,3.08
2022-12-27T21:19:36.171Z,3.58
2022-12-27T21:24:39.809Z,3.03
2022-12-27T21:29:43.751Z,3.25
2022-12-27T21:34:49.733Z,2.88
2022-12-27T21:39:53.565Z,2.75
2022-12-27T21:44:57.184Z,2.97
2022-12-27T21:50:02.083Z,3.08
2022-12-27T21:55:06.506Z,2.30
2022-12-27T22:00:12.211Z,3.72
2022-12-27T22:05:17.486Z,2.92
2022-12-27T22:10:21.129Z,5.20
2022-12-27T22:15:24.830Z,3.10
2022-12-27T22:20:30.974Z,2.67
2022-12-27T22:25:34.688Z,3.00
2022-12-27T22:30:39.035Z,3.03
2022-12-27T22:35:44.658Z,3.38
2022-12-27T22:40:48.152Z,3.13
2022-12-27T22:45:53.946Z,3.28
2022-12-27T22:50:59.093Z,2.83
2022-12-27T22:56:02.846Z,2.97
2022-12-27T23:01:12.015Z,3.35
2022-12-27T23:06:17.635Z,3.63
2022-12-27T23:11:25.492Z,2.85
2022-12-27T23:16:29.650Z,3.42
2022-12-27T23:21:34.561Z,2.88
2022-12-27T23:26:38.606Z,2.90
2022-12-27T23:31:54.533Z,3.13
2022-12-27T23:37:01.257Z,3.30
2022-12-27T23:42:04.917Z,3.22
2022-12-27T23:47:08.584Z,3.83
2022-12-27T23:52:13.444Z,3.78
2022-12-27T23:57:19.829Z,3.22
